createdAt,value
2023-05-10T00:00:30.600Z,0.062
2023-05-10T00:01:29.807Z,0.071
2023-05-10T00:02:31.572Z,0.071
2023-05-10T00:03:30.284Z,0.071
2023-05-10T00:05:29.400Z,0.071
2023-05-10T00:06:29.743Z,0.071
2023-05-10T00:07:29.928Z,0.071
2023-05-10T00:08:30.123Z,0.071
2023-05-10T00:09:29.268Z,0.071
2023-05-10T00:10:30.055Z,0.071
2023-05-10T00:11:32.156Z,0.071
2023-05-10T00:12:29.276Z,0.071
2023-05-10T00:13:29.763Z,0.062
2023-05-10T00:14:30.101Z,0.062
2023-05-10T00:15:29.319Z,0.062
2023-05-10T00:16:29.678Z,0.062
2023-05-10T00:17:29.980Z,0.062
2023-05-10T00:18:29.154Z,0.062
2023-05-10T00:19:29.667Z,0.054
2023-05-10T00:20:30.430Z,0.054
2023-05-10T00:21:29.676Z,0.054
2023-05-10T00:22:30.221Z,0.062
2023-05-10T00:23:29.436Z,0.062
2023-05-10T00:24:29.618Z,0.054
2023-05-10T00:25:29.860Z,0.062
2023-05-10T00:26:30.118Z,0.062
2023-05-10T00:27:29.343Z,0.062
2023-05-10T00:28:29.544Z,0.062
2023-05-10T00:29:29.696Z,0.062
2023-05-10T00:30:30.818Z,0.062
2023-05-10T00:32:29.611Z,0.062
2023-05-10T00:33:29.919Z,0.062
2023-05-10T00:34:30.190Z,0.062
2023-05-10T00:35:29.458Z,0.062
2023-05-10T00:36:29.619Z,0.062
2023-05-10T00:37:29.835Z,0.062
2023-05-10T00:38:30.057Z,0.062
2023-05-10T00:39:29.265Z,0.071
2023-05-10T00:40:29.943Z,0.071
2023-05-10T00:41:30.202Z,0.071
2023-05-10T00:42:29.398Z,0.062
2023-05-10T00:43:29.589Z,0.071
2023-05-10T00:44:29.818Z,0.071
2023-05-10T00:45:30.035Z,0.071
2023-05-10T00:46:29.494Z,0.071
2023-05-10T00:47:30.154Z,0.071
2023-05-10T00:48:29.422Z,0.062
2023-05-10T00:49:29.677Z,0.062
2023-05-10T00:50:30.781Z,0.062
2023-05-10T00:51:30.184Z,0.062
2023-05-10T00:52:29.351Z,0.062
2023-05-10T00:53:29.650Z,0.062
2023-05-10T00:54:29.874Z,0.062
2023-05-10T00:55:30.038Z,0.062
2023-05-10T00:56:29.232Z,0.062
2023-05-10T00:57:29.369Z,0.062
2023-05-10T00:58:29.605Z,0.062
2023-05-10T00:59:29.851Z,0.062
2023-05-10T01:00:30.380Z,0.062
2023-05-10T01:01:29.956Z,0.062
2023-05-10T01:02:29.867Z,0.062
2023-05-10T01:03:30.673Z,0.062
2023-05-10T01:04:29.984Z,0.062
2023-05-10T01:05:29.759Z,0.062
2023-05-10T01:06:29.915Z,0.062
2023-05-10T01:07:30.154Z,0.062
2023-05-10T01:08:29.344Z,0.071
2023-05-10T01:09:29.670Z,0.071
2023-05-10T01:10:30.447Z,0.071
2023-05-10T01:11:29.610Z,0.071
2023-05-10T01:12:30.181Z,0.080
2023-05-10T01:13:29.784Z,0.071
2023-05-10T01:14:30.037Z,0.071
2023-05-10T01:15:29.223Z,0.071
2023-05-10T01:16:30.001Z,0.071
2023-05-10T01:17:29.422Z,0.071
2023-05-10T01:18:29.723Z,0.071
2023-05-10T01:19:29.950Z,0.071
2023-05-10T01:20:30.871Z,0.071
2023-05-10T01:21:30.050Z,0.071
2023-05-10T01:23:29.492Z,0.071
2023-05-10T01:24:29.771Z,0.071
2023-05-10T01:25:30.264Z,0.071
2023-05-10T01:26:29.458Z,0.071
2023-05-10T01:27:29.683Z,0.071
2023-05-10T01:28:29.886Z,0.071
2023-05-10T01:29:30.183Z,0.071
2023-05-10T01:30:31.473Z,0.071
2023-05-10T01:31:30.151Z,0.071
2023-05-10T01:32:29.416Z,0.071
2023-05-10T01:33:29.664Z,0.071
2023-05-10T01:34:29.818Z,0.071
2023-05-10T01:35:30.207Z,0.071
2023-05-10T01:36:29.392Z,0.071
2023-05-10T01:37:29.682Z,0.071
2023-05-10T01:38:30.014Z,0.071
2023-05-10T01:39:29.234Z,0.071
2023-05-10T01:40:29.825Z,0.080
2023-05-10T01:41:30.105Z,0.080
2023-05-10T01:42:29.406Z,0.080
2023-05-10T01:43:29.650Z,0.080
2023-05-10T01:44:29.941Z,0.080
2023-05-10T01:45:30.214Z,0.089
2023-05-10T01:46:29.578Z,0.080
2023-05-10T01:47:29.928Z,0.080
2023-05-10T01:48:30.239Z,0.080
2023-05-10T01:49:29.475Z,0.080
2023-05-10T01:50:30.809Z,0.071
2023-05-10T01:51:30.042Z,0.071
2023-05-10T01:52:29.230Z,0.071
2023-05-10T01:53:29.469Z,0.080
2023-05-10T01:54:29.809Z,0.080
2023-05-10T01:55:30.336Z,0.089
2023-05-10T01:56:29.821Z,0.089
2023-05-10T01:57:30.047Z,0.098
2023-05-10T01:58:29.192Z,0.107
2023-05-10T01:59:29.459Z,0.125
2023-05-10T02:00:30.040Z,0.152
2023-05-10T02:01:29.621Z,0.169
2023-05-10T02:02:30.021Z,0.161
2023-05-10T02:03:29.663Z,0.143
2023-05-10T02:04:29.891Z,0.134
2023-05-10T02:05:30.259Z,0.116
2023-05-10T02:06:29.449Z,0.107
2023-05-10T02:07:29.894Z,0.107
2023-05-10T02:08:30.176Z,0.098
2023-05-10T02:09:29.381Z,0.107
2023-05-10T02:10:30.378Z,0.116
2023-05-10T02:11:29.542Z,0.134
2023-05-10T02:12:29.786Z,0.143
2023-05-10T02:13:30.585Z,0.161
2023-05-10T02:14:29.938Z,0.178
2023-05-10T02:15:30.247Z,0.196
2023-05-10T02:16:29.814Z,0.196
2023-05-10T02:17:30.212Z,0.161
2023-05-10T02:18:29.416Z,0.143
2023-05-10T02:19:29.767Z,0.134
2023-05-10T02:20:30.721Z,0.134
2023-05-10T02:21:30.192Z,0.125
2023-05-10T02:22:29.408Z,0.116
2023-05-10T02:23:29.795Z,0.107
2023-05-10T02:24:30.231Z,0.116
2023-05-10T02:25:29.395Z,0.134
2023-05-10T02:26:29.552Z,0.161
2023-05-10T02:27:29.869Z,0.178
2023-05-10T02:28:30.193Z,0.196
2023-05-10T02:29:29.633Z,0.196
2023-05-10T02:30:30.225Z,0.187
2023-05-10T02:31:29.664Z,0.169
2023-05-10T02:32:30.142Z,0.152
2023-05-10T02:33:29.581Z,0.161
2023-05-10T02:34:29.770Z,0.169
2023-05-10T02:35:30.002Z,0.161
2023-05-10T02:36:29.225Z,0.152
2023-05-10T02:37:29.455Z,0.161
2023-05-10T02:38:29.778Z,0.161
2023-05-10T02:39:30.073Z,0.187
2023-05-10T02:40:32.880Z,0.196
2023-05-10T02:43:29.725Z,0.232
2023-05-10T02:44:30.027Z,0.232
2023-05-10T02:45:29.243Z,0.241
2023-05-10T02:46:29.816Z,0.250
2023-05-10T02:47:30.141Z,0.259
2023-05-10T02:49:29.597Z,0.259
2023-05-10T02:50:30.368Z,0.276
2023-05-10T02:51:29.673Z,0.294
2023-05-10T02:52:29.883Z,0.312
2023-05-10T02:53:30.232Z,0.321
2023-05-10T02:54:29.431Z,0.321
2023-05-10T02:55:29.696Z,0.321
2023-05-10T02:56:29.967Z,0.321
2023-05-10T02:57:30.159Z,0.366
2023-05-10T02:59:29.656Z,0.580
2023-05-10T03:00:30.387Z,0.713
2023-05-10T03:01:29.812Z,0.829
2023-05-10T03:02:30.335Z,0.963
2023-05-10T03:03:29.658Z,1.141
2023-05-10T03:04:30.251Z,1.337
2023-05-10T03:05:29.565Z,1.551
2023-05-10T03:06:29.813Z,1.792
2023-05-10T03:07:30.044Z,2.006
2023-05-10T03:08:29.213Z,2.345
2023-05-10T03:09:29.481Z,2.586
2023-05-10T03:10:30.529Z,2.898
2023-05-10T03:11:29.942Z,3.255
2023-05-10T03:12:30.161Z,3.754
2023-05-10T03:13:30.285Z,4.030
2023-05-10T03:14:29.496Z,4.476
2023-05-10T03:15:29.699Z,5.029
2023-05-10T03:16:30.348Z,5.528
2023-05-10T03:17:29.832Z,6.161
2023-05-10T03:18:30.067Z,7.285
2023-05-10T03:20:30.068Z,10.522
2023-05-10T03:21:29.267Z,12.091
2023-05-10T03:22:29.482Z,13.535
2023-05-10T03:23:29.730Z,15.756
2023-05-10T03:24:30.174Z,18.591
2023-05-10T03:25:29.482Z,22.586
2023-05-10T03:26:29.658Z,27.321
2023-05-10T03:27:29.926Z,32.394
2023-05-10T03:28:30.265Z,38.466
2023-05-10T03:29:29.488Z,42.203
2023-05-10T03:30:30.231Z,45.707
2023-05-10T03:31:29.708Z,49.514
2023-05-10T03:32:30.102Z,56.665
2023-05-10T03:33:29.327Z,74.802
2023-05-10T03:34:29.591Z,96.817
2023-05-10T03:35:29.810Z,121.195
2023-05-10T03:36:30.042Z,137.700
2023-05-10T03:37:29.274Z,161.900
2023-05-10T03:38:30.650Z,176.853
2023-05-10T03:39:29.963Z,193.670
2023-05-10T03:40:30.825Z,207.107
2023-05-10T03:41:30.001Z,223.148
2023-05-10T03:42:29.161Z,249.881
2023-05-10T03:43:29.402Z,282.685
2023-05-10T03:44:29.718Z,312.948
2023-05-10T03:45:29.955Z,334.839
2023-05-10T03:46:30.965Z,341.838
2023-05-10T03:47:30.264Z,343.247
2023-05-10T03:48:29.464Z,345.137
2023-05-10T03:49:29.689Z,355.561
2023-05-10T03:50:30.849Z,389.409
2023-05-10T03:51:30.025Z,438.254
2023-05-10T03:52:29.173Z,507.020
2023-05-10T03:53:29.429Z,558.701
2023-05-10T03:54:29.684Z,608.616
2023-05-10T03:55:29.994Z,643.445
2023-05-10T03:56:29.178Z,683.088
2023-05-10T03:57:29.434Z,735.893
2023-05-10T03:58:29.930Z,795.759
2023-05-10T03:59:30.155Z,856.749
2023-05-10T04:00:29.492Z,919.023
2023-05-10T04:01:29.669Z,916.294
2023-05-10T04:02:30.757Z,928.653
2023-05-10T04:03:31.091Z,1009.224
2023-05-10T04:04:29.753Z,1078.560
2023-05-10T04:05:29.992Z,1121.734
2023-05-10T04:06:29.674Z,1260.567
2023-05-10T04:07:29.828Z,1435.512
2023-05-10T04:08:30.011Z,1484.946
2023-05-10T04:09:29.227Z,1574.826
2023-05-10T04:10:30.168Z,1603.556
2023-05-10T04:11:29.474Z,1596.494
2023-05-10T04:12:29.740Z,1678.509
2023-05-10T04:13:30.575Z,1745.116
2023-05-10T04:14:29.744Z,1998.867
2023-05-10T04:15:29.918Z,2199.653
2023-05-10T04:16:30.492Z,2365.128
2023-05-10T04:17:30.263Z,2210.246
2023-05-10T04:18:29.522Z,1899.839
2023-05-10T04:19:30.738Z,1701.140
2023-05-10T04:20:30.570Z,1501.638
2023-05-10T04:21:29.845Z,1459.587
2023-05-10T04:22:30.080Z,1440.488
2023-05-10T04:25:29.770Z,2212.653
2023-05-10T04:26:30.110Z,2434.143
2023-05-10T04:27:29.382Z,2665.905
2023-05-10T04:28:29.638Z,2673.609
2023-05-10T04:29:29.943Z,2693.511
2023-05-10T04:30:29.571Z,2626.743
2023-05-10T04:31:30.361Z,2588.544
2023-05-10T04:32:29.704Z,2594.001
2023-05-10T04:33:29.956Z,2613.742
2023-05-10T04:34:29.282Z,2539.431
2023-05-10T04:35:29.507Z,2745.513
2023-05-10T04:36:29.716Z,2821.590
2023-05-10T04:37:30.002Z,2894.136
2023-05-10T04:39:29.595Z,2943.730
2023-05-10T04:40:30.366Z,3014.030
2023-05-10T04:41:29.575Z,3205.345
2023-05-10T04:42:29.778Z,3384.945
2023-05-10T04:43:29.984Z,3917.484
2023-05-10T04:44:29.198Z,4186.963
2023-05-10T04:45:29.459Z,4083.602
2023-05-10T04:46:30.146Z,3944.288
2023-05-10T04:47:29.561Z,4068.835
2023-05-10T04:48:29.781Z,4435.097
2023-05-10T04:49:29.987Z,4541.508
2023-05-10T04:50:29.578Z,4145.394
2023-05-10T04:51:29.787Z,3394.575
2023-05-10T04:52:29.955Z,3403.242
2023-05-10T04:53:30.119Z,3156.393
2023-05-10T04:54:29.286Z,3093.316
2023-05-10T04:55:29.516Z,3634.041
2023-05-10T04:56:29.739Z,3471.455
2023-05-10T04:57:29.985Z,2899.272
2023-05-10T04:58:29.256Z,3167.789
2023-05-10T04:59:29.497Z,2935.545
2023-05-10T05:00:30.179Z,2421.945
2023-05-10T05:01:29.658Z,2225.654
2023-05-10T05:02:30.144Z,2182.479
2023-05-10T05:03:30.177Z,2083.129
2023-05-10T05:04:29.888Z,2179.429
2023-05-10T05:06:29.279Z,2536.061
2023-05-10T05:07:29.547Z,2965.719
2023-05-10T05:08:29.763Z,3314.967
2023-05-10T05:09:30.185Z,3709.155
2023-05-10T05:10:29.800Z,4117.467
2023-05-10T05:11:29.969Z,4274.597
2023-05-10T05:12:29.158Z,4535.730
2023-05-10T05:13:30.198Z,4830.568
2023-05-10T05:14:29.582Z,5219.299
2023-05-10T05:15:29.814Z,5725.035
2023-05-10T05:16:30.374Z,6414.382
2023-05-10T05:17:29.807Z,7120.101
2023-05-10T05:18:29.969Z,7702.074
2023-05-10T05:19:29.195Z,7873.167
2023-05-10T05:20:29.482Z,7701.271
2023-05-10T05:21:29.769Z,8134.461
2023-05-10T05:22:31.361Z,8463.165
2023-05-10T05:23:29.565Z,8745.645
2023-05-10T05:24:29.803Z,9183.008
2023-05-10T05:25:30.055Z,10513.713
2023-05-10T05:26:29.218Z,11380.895
2023-05-10T05:27:29.559Z,11110.934
2023-05-10T05:28:29.757Z,11282.508
2023-05-10T05:29:29.921Z,11853.567
2023-05-10T05:30:30.621Z,13161.160
2023-05-10T05:31:30.078Z,13624.685
2023-05-10T05:33:29.608Z,12721.551
2023-05-10T05:34:29.844Z,12673.883
2023-05-10T05:35:30.540Z,13742.491
2023-05-10T05:36:30.056Z,13521.483
2023-05-10T05:37:29.374Z,13346.057
2023-05-10T05:38:29.547Z,12662.326
2023-05-10T05:39:30.024Z,13316.685
2023-05-10T05:40:29.180Z,13408.170
2023-05-10T05:41:29.517Z,14337.946
2023-05-10T05:42:29.753Z,14784.457
2023-05-10T05:43:30.022Z,14485.285
2023-05-10T05:44:29.227Z,15415.383
2023-05-10T05:45:30.146Z,15425.174
2023-05-10T05:46:29.704Z,14920.562
2023-05-10T05:47:30.302Z,14467.310
2023-05-10T05:48:29.666Z,13578.300
2023-05-10T05:49:29.936Z,12586.731
2023-05-10T05:50:30.092Z,12900.669
2023-05-10T05:51:29.245Z,14003.625
2023-05-10T05:52:29.567Z,15247.821
2023-05-10T05:53:31.169Z,16485.758
2023-05-10T05:54:29.401Z,16277.910
2023-05-10T05:55:30.015Z,15125.681
2023-05-10T05:56:29.474Z,15155.694
2023-05-10T05:57:29.645Z,16100.718
2023-05-10T05:58:30.039Z,17870.230
2023-05-10T05:59:29.294Z,18020.779
2023-05-10T06:00:29.838Z,17956.740
2023-05-10T06:01:30.110Z,16315.788
2023-05-10T06:02:29.810Z,14317.563
2023-05-10T06:03:31.018Z,14804.841
2023-05-10T06:05:30.296Z,15532.066
2023-05-10T06:06:29.554Z,16677.395
2023-05-10T06:07:29.812Z,19191.947
2023-05-10T06:08:30.021Z,19295.471
2023-05-10T06:09:29.204Z,18305.346
2023-05-10T06:10:29.689Z,19102.549
2023-05-10T06:11:30.009Z,18309.840
2023-05-10T06:13:30.116Z,18980.891
2023-05-10T06:14:29.342Z,18035.385
2023-05-10T06:15:29.796Z,15593.217
2023-05-10T06:16:30.264Z,13993.032
2023-05-10T06:17:29.559Z,10983.817
2023-05-10T06:18:29.993Z,9664.989
2023-05-10T06:19:29.295Z,9039.681
2023-05-10T06:20:29.556Z,9309.803
2023-05-10T06:21:29.816Z,10019.373
2023-05-10T06:22:30.130Z,11040.955
2023-05-10T06:23:29.269Z,12815.122
2023-05-10T06:24:29.788Z,14219.177
2023-05-10T06:25:30.579Z,15955.305
2023-05-10T06:26:29.843Z,18318.508
2023-05-10T06:27:30.102Z,20471.615
2023-05-10T06:28:29.297Z,22214.484
2023-05-10T06:29:29.524Z,22704.010
2023-05-10T06:30:30.373Z,22282.375
2023-05-10T06:31:30.233Z,21170.912
2023-05-10T06:32:29.544Z,20726.008
2023-05-10T06:33:29.828Z,20958.250
2023-05-10T06:34:30.047Z,22334.537
2023-05-10T06:35:30.371Z,23539.090
2023-05-10T06:36:29.554Z,24508.510
2023-05-10T06:37:29.783Z,25381.148
2023-05-10T06:38:30.021Z,26568.207
2023-05-10T06:39:29.239Z,27702.301
2023-05-10T06:40:29.448Z,28967.521
2023-05-10T06:41:33.327Z,29534.086
2023-05-10T06:42:29.487Z,30448.135
2023-05-10T06:43:29.764Z,31298.143
2023-05-10T06:44:30.197Z,32006.750
2023-05-10T06:45:30.272Z,31637.600
2023-05-10T06:46:29.750Z,29810.467
2023-05-10T06:47:29.969Z,28045.289
2023-05-10T06:48:29.472Z,27452.080
2023-05-10T06:49:29.633Z,28143.193
2023-05-10T06:50:29.926Z,29487.863
2023-05-10T06:51:30.160Z,31310.822
2023-05-10T06:52:29.355Z,31432.963
2023-05-10T06:53:29.583Z,31379.836
2023-05-10T06:54:29.788Z,31609.031
2023-05-10T06:55:30.652Z,31132.346
2023-05-10T06:56:29.871Z,29986.215
2023-05-10T06:57:41.539Z,29935.496
2023-05-10T06:59:30.557Z,32266.920
2023-05-10T07:00:30.891Z,34680.680
2023-05-10T07:01:30.928Z,36486.625
2023-05-10T07:02:30.964Z,37908.977
2023-05-10T07:03:29.249Z,37913.953
2023-05-10T07:04:29.905Z,39745.738
2023-05-10T07:05:30.484Z,42716.594
2023-05-10T07:06:40.594Z,47051.539
2023-05-10T07:09:29.146Z,44794.105
2023-05-10T07:10:29.515Z,44475.836
2023-05-10T07:11:29.958Z,46018.078
2023-05-10T07:12:31.665Z,45216.543
2023-05-10T07:13:30.612Z,45549.258
2023-05-10T07:14:29.770Z,48124.320
2023-05-10T07:16:30.331Z,50345.961
2023-05-10T07:17:30.066Z,50556.535
2023-05-10T07:18:29.559Z,51195.328
2023-05-10T07:19:29.878Z,52329.902
2023-05-10T07:20:30.095Z,51754.992
2023-05-10T07:21:29.940Z,53534.453
2023-05-10T07:22:29.208Z,56202.605
2023-05-10T07:23:29.428Z,58216.398
2023-05-10T07:24:29.883Z,60881.020
2023-05-10T07:25:30.531Z,56840.273
2023-05-10T07:26:29.819Z,68472.352
2023-05-10T07:27:30.146Z,72129.664
2023-05-10T07:28:29.391Z,72617.102
2023-05-10T07:29:29.687Z,80919.766
2023-05-10T07:30:30.380Z,82364.266
2023-05-10T07:31:29.689Z,66723.219
2023-05-10T07:32:30.841Z,54717.180
2023-05-10T07:34:29.726Z,47471.246
2023-05-10T07:35:30.435Z,43959.988
2023-05-10T07:36:29.675Z,44851.887
2023-05-10T07:37:29.953Z,44344.547
2023-05-10T07:38:29.885Z,42582.254
2023-05-10T07:39:39.927Z,38636.363
2023-05-10T07:42:29.443Z,27185.490
2023-05-10T07:43:29.774Z,26584.738
2023-05-10T07:44:29.989Z,26805.105
2023-05-10T07:45:29.655Z,27411.152
2023-05-10T07:46:30.519Z,27501.996
2023-05-10T07:47:30.085Z,29510.654
2023-05-10T07:48:29.316Z,32620.822
2023-05-10T07:49:29.511Z,34000.641
2023-05-10T07:50:30.018Z,32087.803
2023-05-10T07:51:29.242Z,28603.348
2023-05-10T07:52:31.749Z,25705.037
2023-05-10T07:53:30.088Z,24137.756
2023-05-10T07:54:29.681Z,23946.922
2023-05-10T07:55:30.296Z,22822.939
2023-05-10T07:58:29.389Z,16018.542
2023-05-10T07:59:29.619Z,14681.096
2023-05-10T08:00:30.050Z,16146.140
2023-05-10T08:01:29.255Z,17599.627
2023-05-10T08:02:30.059Z,18464.562
2023-05-10T08:03:30.212Z,17860.439
2023-05-10T08:04:29.749Z,18446.586
2023-05-10T08:05:30.654Z,21999.574
2023-05-10T08:06:29.987Z,22077.418
2023-05-10T08:08:29.545Z,16893.748
2023-05-10T08:09:29.852Z,17407.188
2023-05-10T08:10:30.197Z,18404.375
2023-05-10T08:11:30.158Z,17546.020
2023-05-10T08:12:29.331Z,15573.154
2023-05-10T08:13:29.576Z,14999.206
2023-05-10T08:14:31.219Z,15928.502
2023-05-10T08:15:30.065Z,17348.123
2023-05-10T08:16:30.154Z,19211.207
2023-05-10T08:17:32.726Z,20881.531
2023-05-10T08:18:31.460Z,24432.914
2023-05-10T08:19:29.721Z,29949.781
2023-05-10T08:20:30.058Z,33481.422
2023-05-10T08:22:29.735Z,29510.012
2023-05-10T08:23:30.166Z,26782.154
2023-05-10T08:24:29.407Z,26599.023
2023-05-10T08:25:30.023Z,29891.520
2023-05-10T08:26:29.386Z,30775.393
2023-05-10T08:27:29.673Z,28080.920
2023-05-10T08:28:29.902Z,27871.146
2023-05-10T08:29:46.224Z,30339.154
2023-05-10T08:30:29.729Z,31586.561
2023-05-10T08:31:30.467Z,33677.074
2023-05-10T08:32:29.884Z,34107.375
2023-05-10T08:33:30.590Z,29484.812
2023-05-10T08:34:30.766Z,24187.510
2023-05-10T08:35:30.308Z,19833.787
2023-05-10T08:38:29.750Z,19151.822
2023-05-10T08:39:40.153Z,18813.971
2023-05-10T08:41:29.718Z,15623.552
2023-05-10T08:42:30.263Z,14130.580
2023-05-10T08:43:29.645Z,15038.689
2023-05-10T08:44:29.907Z,15425.655
2023-05-10T08:45:30.719Z,14643.378
2023-05-10T08:46:30.434Z,14706.134
2023-05-10T08:47:30.046Z,17257.924
2023-05-10T08:48:29.265Z,23102.209
2023-05-10T08:49:29.540Z,28395.178
2023-05-10T08:50:30.007Z,27429.932
2023-05-10T08:51:29.654Z,23144.742
2023-05-10T08:52:30.200Z,18111.943
2023-05-10T08:53:29.478Z,14536.806
2023-05-10T08:54:29.736Z,11669.313
2023-05-10T08:55:30.585Z,10259.802
2023-05-10T08:56:29.871Z,10796.675
2023-05-10T08:57:30.155Z,11645.720
2023-05-10T08:58:29.381Z,14120.950
2023-05-10T08:59:29.842Z,18842.861
2023-05-10T09:00:30.223Z,22706.738
2023-05-10T09:01:30.039Z,25885.762
2023-05-10T09:02:29.503Z,28765.291
2023-05-10T09:03:29.799Z,31658.143
2023-05-10T09:04:31.111Z,35828.734
2023-05-10T09:05:30.552Z,40009.281
2023-05-10T09:06:30.000Z,43894.824
2023-05-10T09:07:29.234Z,47592.742
2023-05-10T09:08:29.564Z,51476.523
2023-05-10T09:09:29.795Z,55000.461
2023-05-10T09:10:30.170Z,59841.141
2023-05-10T09:11:29.404Z,68509.742
2023-05-10T09:12:29.693Z,74054.055
2023-05-10T09:13:29.962Z,81856.602
2023-05-10T09:14:30.201Z,72720.781
2023-05-10T09:15:29.851Z,72556.430
2023-05-10T09:16:34.212Z,69879.773
2023-05-10T09:17:30.013Z,66567.539
2023-05-10T09:18:32.217Z,67545.461
2023-05-10T09:19:29.724Z,73182.867
2023-05-10T09:20:30.040Z,74504.258
2023-05-10T09:21:29.321Z,72605.383
2023-05-10T09:22:32.572Z,72882.891
2023-05-10T09:23:33.137Z,75557.625
2023-05-10T09:24:32.415Z,72411.984
2023-05-10T09:25:34.579Z,73164.570
2023-05-10T09:26:32.911Z,70632.516
2023-05-10T09:27:33.443Z,68807.156
2023-05-10T09:28:32.767Z,67236.336
2023-05-10T09:29:32.972Z,72576.977
2023-05-10T09:30:29.246Z,80412.586
2023-05-10T09:31:30.542Z,89465.266
2023-05-10T09:33:29.275Z,71175.648
2023-05-10T09:34:29.526Z,101865.336
2023-05-10T09:36:29.221Z,61309.715
2023-05-10T09:37:29.422Z,38164.812
2023-05-10T09:38:29.681Z,26371.594
2023-05-10T09:39:29.923Z,19237.691
2023-05-10T09:40:30.338Z,15638.960
2023-05-10T09:41:29.588Z,15258.896
2023-05-10T09:42:29.788Z,18661.816
2023-05-10T09:43:30.028Z,24085.594
2023-05-10T09:44:30.457Z,29201.691
2023-05-10T09:45:30.006Z,35143.242
2023-05-10T09:46:29.450Z,39454.270
2023-05-10T09:47:30.001Z,42504.414
2023-05-10T09:48:29.209Z,43121.215
2023-05-10T09:49:29.467Z,38323.867
2023-05-10T09:50:29.846Z,33996.469
2023-05-10T09:51:30.174Z,28347.510
2023-05-10T09:52:29.410Z,25495.746
2023-05-10T09:53:29.681Z,24792.756
2023-05-10T09:54:29.888Z,26794.672
2023-05-10T09:55:30.736Z,29908.213
2023-05-10T09:56:29.957Z,32941.824
2023-05-10T09:57:30.342Z,35746.078
2023-05-10T09:58:29.539Z,39755.852
2023-05-10T09:59:29.803Z,43529.848
2023-05-10T10:00:30.498Z,49378.629
2023-05-10T10:01:30.128Z,57979.824
2023-05-10T10:02:29.641Z,72044.922
2023-05-10T10:03:33.584Z,107952.945
2023-05-10T10:04:30.159Z,96333.703
2023-05-10T10:05:29.559Z,127585.305
2023-05-10T10:10:29.932Z,42241.996
2023-05-10T10:11:30.179Z,41371.602
2023-05-10T10:12:29.510Z,43715.062
2023-05-10T10:13:29.714Z,46080.512
2023-05-10T10:14:29.922Z,51574.750
2023-05-10T10:15:32.956Z,70475.227
2023-05-10T10:16:30.786Z,64821.777
2023-05-10T10:18:29.657Z,60671.406
2023-05-10T10:19:29.962Z,88116.102
2023-05-10T10:20:31.411Z,90874.297
2023-05-10T10:21:29.748Z,54273.555
2023-05-10T10:22:30.044Z,52806.426
2023-05-10T10:23:29.764Z,50994.383
2023-05-10T10:24:30.066Z,47869.285
2023-05-10T10:26:30.158Z,43472.066
2023-05-10T10:27:29.407Z,43612.344
2023-05-10T10:28:32.198Z,45469.168
2023-05-10T10:29:29.527Z,48576.770
2023-05-10T10:30:29.778Z,53426.277
2023-05-10T10:31:30.862Z,57105.898
2023-05-10T10:32:30.336Z,58248.020
2023-05-10T10:35:30.713Z,64888.867
2023-05-10T10:36:29.963Z,51628.676
2023-05-10T10:37:30.244Z,46511.457
2023-05-10T10:39:30.098Z,42140.719
2023-05-10T10:40:29.885Z,41619.898
2023-05-10T10:41:30.087Z,41558.746
2023-05-10T10:42:29.405Z,41188.473
2023-05-10T10:43:29.865Z,41361.332
2023-05-10T10:44:30.147Z,42045.543
2023-05-10T10:45:30.107Z,42007.664
2023-05-10T10:46:29.497Z,42150.672
2023-05-10T10:47:30.097Z,43047.867
2023-05-10T10:48:29.442Z,43945.863
2023-05-10T10:49:29.656Z,45773.797
2023-05-10T10:50:29.874Z,46588.816
2023-05-10T10:51:30.133Z,46226.086
2023-05-10T10:52:29.382Z,45622.605
2023-05-10T10:53:30.113Z,43791.301
2023-05-10T10:54:29.389Z,42190.473
2023-05-10T10:55:30.048Z,41741.555
2023-05-10T10:56:29.284Z,41283.969
2023-05-10T10:57:29.586Z,41280.762
2023-05-10T10:58:30.076Z,41280.117
2023-05-10T10:59:29.293Z,40913.695
2023-05-10T11:00:29.994Z,40647.910
2023-05-10T11:01:29.991Z,39988.734
2023-05-10T11:02:31.208Z,39862.582
2023-05-10T11:03:29.804Z,40744.371
2023-05-10T11:04:30.669Z,42337.492
2023-05-10T11:06:29.899Z,43107.891
2023-05-10T11:07:30.167Z,42256.602
2023-05-10T11:08:29.770Z,40761.543
2023-05-10T11:09:30.079Z,39305.488
2023-05-10T11:10:29.314Z,38938.102
2023-05-10T11:11:29.562Z,38842.766
2023-05-10T11:12:29.846Z,38729.453
2023-05-10T11:13:30.314Z,38685.156
2023-05-10T11:14:29.887Z,39395.527
2023-05-10T11:15:30.454Z,41283.168
2023-05-10T11:16:30.460Z,43378.816
2023-05-10T11:17:30.209Z,44702.461
2023-05-10T11:18:29.655Z,44949.469
2023-05-10T11:19:30.032Z,45609.285
2023-05-10T11:20:30.035Z,45980.359
2023-05-10T11:21:29.332Z,44538.750
2023-05-10T11:22:29.747Z,41767.398
2023-05-10T11:23:30.262Z,38854.000
2023-05-10T11:24:29.426Z,35057.855
2023-05-10T11:25:29.666Z,32004.824
2023-05-10T11:26:30.065Z,29785.109
2023-05-10T11:27:29.224Z,29322.547
2023-05-10T11:29:29.762Z,28820.182
2023-05-10T11:30:30.566Z,29967.436
2023-05-10T11:31:30.614Z,31764.715
2023-05-10T11:32:30.164Z,33691.680
2023-05-10T11:33:29.646Z,35456.859
2023-05-10T11:34:29.862Z,37246.594
2023-05-10T11:35:30.138Z,42849.168
2023-05-10T11:36:29.388Z,40298.820
2023-05-10T11:37:29.693Z,40853.832
2023-05-10T11:38:30.012Z,42505.695
2023-05-10T11:39:29.350Z,43777.500
2023-05-10T11:40:30.189Z,44201.699
2023-05-10T11:41:29.431Z,43766.906
2023-05-10T11:42:29.841Z,44079.719
2023-05-10T11:43:30.239Z,45047.055
2023-05-10T11:44:29.534Z,46403.598
2023-05-10T11:45:29.849Z,47049.453
2023-05-10T11:46:30.720Z,46006.363
2023-05-10T11:47:30.547Z,45596.605
2023-05-10T11:48:30.191Z,45743.465
2023-05-10T11:49:29.608Z,45576.383
2023-05-10T11:50:30.550Z,45535.293
2023-05-10T11:51:29.946Z,45195.195
2023-05-10T11:52:30.126Z,44936.629
2023-05-10T11:53:32.313Z,44918.812
2023-05-10T11:54:29.705Z,44480.488
2023-05-10T11:55:30.084Z,43894.824
2023-05-10T11:58:29.912Z,42968.578
2023-05-10T11:59:30.134Z,43677.828
2023-05-10T12:00:29.970Z,44808.230
2023-05-10T12:01:29.361Z,47508.000
2023-05-10T12:02:30.271Z,53706.027
2023-05-10T12:03:30.707Z,67606.930
2023-05-10T12:04:30.884Z,63237.480
2023-05-10T12:05:30.149Z,62389.238
2023-05-10T12:06:29.466Z,61510.020
2023-05-10T12:07:29.874Z,60902.047
2023-05-10T12:08:30.172Z,60008.863
2023-05-10T12:09:48.172Z,60726.781
2023-05-10T12:12:29.638Z,53261.926
2023-05-10T12:13:29.890Z,50768.074
2023-05-10T12:14:30.166Z,47859.496
2023-05-10T12:15:29.487Z,44632.160
2023-05-10T12:16:30.272Z,41850.855
2023-05-10T12:17:29.797Z,40063.527
2023-05-10T12:18:30.457Z,38640.375
2023-05-10T12:19:29.790Z,37369.375
2023-05-10T12:20:30.789Z,36284.555
2023-05-10T12:21:30.072Z,35421.387
2023-05-10T12:22:29.378Z,34819.352
2023-05-10T12:23:29.782Z,34497.551
2023-05-10T12:24:30.050Z,34038.520
2023-05-10T12:25:29.653Z,33405.348
2023-05-10T12:26:29.957Z,32919.191
2023-05-10T12:27:29.188Z,32923.203
2023-05-10T12:28:29.573Z,33479.496
2023-05-10T12:29:29.847Z,34137.867
2023-05-10T12:30:30.715Z,34767.992
2023-05-10T12:31:30.392Z,35277.578
2023-05-10T12:32:29.922Z,35638.383
2023-05-10T12:33:30.295Z,36266.258
2023-05-10T12:34:29.538Z,36956.250
2023-05-10T12:35:29.864Z,37818.133
2023-05-10T12:36:30.089Z,39099.727
2023-05-10T12:37:29.423Z,40406.676